sensor_id;sensor_type;location;lat;lon;timestamp;pressure;altitude;pressure_sealevel;temperature;humidity
36834;BME280;48003;52.084;5.224;2023-03-26T00:00:58;100758.0;;;11.58;79.24
36834;BME280;48003;52.084;5.224;2023-03-26T00:04:11;100755.0;;;11.66;79.42
36834;BME280;48003;52.084;5.224;2023-03-26T00:05:48;100755.0;;;11.27;81.22
36834;BME280;48003;52.084;5.224;2023-03-26T00:07:25;100755.0;;;11.48;79.99
36834;BME280;48003;52.084;5.224;2023-03-26T00:10:41;100747.0;;;11.17;81.3
36834;BME280;48003;52.084;5.224;2023-03-26T00:12:18;100749.0;;;11.41;81.2
36834;BME280;48003;52.084;5.224;2023-03-26T00:13:55;100755.0;;;11.31;81.42
36834;BME280;48003;52.084;5.224;2023-03-26T00:17:10;100749.0;;;11.42;81.03
36834;BME280;48003;52.084;5.224;2023-03-26T00:18:46;100752.0;;;11.49;80.48
36834;BME280;48003;52.084;5.224;2023-03-26T00:20:23;100749.0;;;11.41;81.27
36834;BME280;48003;52.084;5.224;2023-03-26T00:21:59;100751.0;;;11.76;79.58
36834;BME280;48003;52.084;5.224;2023-03-26T00:25:12;100752.0;;;11.74;79.94
36834;BME280;48003;52.084;5.224;2023-03-26T00:26:49;100751.0;;;11.24;82.01
36834;BME280;48003;52.084;5.224;2023-03-26T00:28:25;100744.0;;;11.15;83.06
36834;BME280;48003;52.084;5.224;2023-03-26T00:31:40;100741.0;;;10.98;83.9
36834;BME280;48003;52.084;5.224;2023-03-26T00:33:16;100736.0;;;11.02;84.33
36834;BME280;48003;52.084;5.224;2023-03-26T00:34:53;100733.0;;;11.26;83.47
36834;BME280;48003;52.084;5.224;2023-03-26T00:36:30;100727.0;;;11.39;83.06
36834;BME280;48003;52.084;5.224;2023-03-26T00:39:43;100726.0;;;11.36;83.78
36834;BME280;48003;52.084;5.224;2023-03-26T00:41:21;100714.0;;;11.71;81.86
36834;BME280;48003;52.084;5.224;2023-03-26T00:42:58;100717.0;;;11.33;84.23
36834;BME280;48003;52.084;5.224;2023-03-26T00:46:11;100713.0;;;11.69;82.47
36834;BME280;48003;52.084;5.224;2023-03-26T00:47:48;100706.0;;;11.82;81.92
36834;BME280;48003;52.084;5.224;2023-03-26T00:49:24;100709.0;;;11.82;81.55
36834;BME280;48003;52.084;5.224;2023-03-26T00:52:36;100714.0;;;11.58;82.95
36834;BME280;48003;52.084;5.224;2023-03-26T00:54:12;100711.0;;;11.71;82.61
36834;BME280;48003;52.084;5.224;2023-03-26T00:55:49;100710.0;;;11.83;81.84
36834;BME280;48003;52.084;5.224;2023-03-26T00:57:25;100711.0;;;11.28;84.66
36834;BME280;48003;52.084;5.224;2023-03-26T01:00:43;100710.0;;;11.67;82.78
36834;BME280;48003;52.084;5.224;2023-03-26T01:02:21;100708.0;;;11.71;82.39
36834;BME280;48003;52.084;5.224;2023-03-26T01:04:20;100702.0;;;11.52;83.14
36834;BME280;48003;52.084;5.224;2023-03-26T01:05:59;100696.0;;;11.63;83.36
36834;BME280;48003;52.084;5.224;2023-03-26T01:09:15;100701.0;;;11.79;82.44
36834;BME280;48003;52.084;5.224;2023-03-26T01:10:55;100694.0;;;11.69;83.13
36834;BME280;48003;52.084;5.224;2023-03-26T01:12:33;100690.0;;;11.82;82.66
36834;BME280;48003;52.084;5.224;2023-03-26T01:14:12;100681.0;;;11.96;81.86
36834;BME280;48003;52.084;5.224;2023-03-26T01:17:27;100685.0;;;11.76;82.8
36834;BME280;48003;52.084;5.224;2023-03-26T01:19:07;100674.0;;;11.98;81.73
36834;BME280;48003;52.084;5.224;2023-03-26T01:20:48;100676.0;;;11.67;82.75
36834;BME280;48003;52.084;5.224;2023-03-26T01:24:03;100670.0;;;11.98;82.09
36834;BME280;48003;52.084;5.224;2023-03-26T01:25:44;100661.0;;;12.04;81.52
36834;BME280;48003;52.084;5.224;2023-03-26T01:27:30;100663.0;;;12.15;81.14
36834;BME280;48003;52.084;5.224;2023-03-26T01:29:17;100662.0;;;12.15;80.83
36834;BME280;48003;52.084;5.224;2023-03-26T01:31:00;100662.0;;;12.0;81.8
36834;BME280;48003;52.084;5.224;2023-03-26T01:34:40;100655.0;;;12.05;81.69
36834;BME280;48003;52.084;5.224;2023-03-26T01:36:27;100656.0;;;12.05;81.25
36834;BME280;48003;52.084;5.224;2023-03-26T01:38:14;100655.0;;;12.04;81.8
36834;BME280;48003;52.084;5.224;2023-03-26T01:40:02;100651.0;;;11.98;81.74
36834;BME280;48003;52.084;5.224;2023-03-26T01:41:44;100643.0;;;12.02;81.63
36834;BME280;48003;52.084;5.224;2023-03-26T01:45:10;100641.0;;;11.91;82.2
36834;BME280;48003;52.084;5.224;2023-03-26T01:46:51;100642.0;;;11.81;82.53
36834;BME280;48003;52.084;5.224;2023-03-26T01:48:30;100638.0;;;11.76;83.17
36834;BME280;48003;52.084;5.224;2023-03-26T01:50:09;100640.0;;;11.76;82.98
36834;BME280;48003;52.084;5.224;2023-03-26T01:53:23;100636.0;;;11.95;82.31
36834;BME280;48003;52.084;5.224;2023-03-26T01:55:00;100633.0;;;12.04;82.15
36834;BME280;48003;52.084;5.224;2023-03-26T01:56:45;100630.0;;;12.1;81.66
36834;BME280;48003;52.084;5.224;2023-03-26T01:58:30;100623.0;;;12.13;81.52
36834;BME280;48003;52.084;5.224;2023-03-26T02:00:20;100624.0;;;12.11;81.44
36834;BME280;48003;52.084;5.224;2023-03-26T02:03:48;100621.0;;;12.08;81.41
36834;BME280;48003;52.084;5.224;2023-03-26T02:05:31;100624.0;;;11.99;81.77
36834;BME280;48003;52.084;5.224;2023-03-26T02:07:13;100623.0;;;11.9;82.26
36834;BME280;48003;52.084;5.224;2023-03-26T02:08:57;100622.0;;;11.93;82.38
36834;BME280;48003;52.084;5.224;2023-03-26T02:10:39;100614.0;;;11.99;82.29
36834;BME280;48003;52.084;5.224;2023-03-26T02:13:57;100605.0;;;12.03;82.23
36834;BME280;48003;52.084;5.224;2023-03-26T02:15:34;100610.0;;;11.91;82.57
36834;BME280;48003;52.084;5.224;2023-03-26T02:17:10;100605.0;;;12.0;82.21
36834;BME280;48003;52.084;5.224;2023-03-26T02:20:25;100599.0;;;12.25;81.75
36834;BME280;48003;52.084;5.224;2023-03-26T02:22:01;100597.0;;;12.36;80.97
36834;BME280;48003;52.084;5.224;2023-03-26T02:23:39;100589.0;;;12.36;81.02
36834;BME280;48003;52.084;5.224;2023-03-26T02:25:19;100589.0;;;12.32;81.47
36834;BME280;48003;52.084;5.224;2023-03-26T02:28:33;100588.0;;;12.39;81.08
36834;BME280;48003;52.084;5.224;2023-03-26T02:30:14;100586.0;;;12.12;81.49
36834;BME280;48003;52.084;5.224;2023-03-26T02:31:50;100586.0;;;12.06;81.99
36834;BME280;48003;52.084;5.224;2023-03-26T02:35:04;100587.0;;;12.28;81.16
36834;BME280;48003;52.084;5.224;2023-03-26T02:36:41;100587.0;;;12.33;80.91
36834;BME280;48003;52.084;5.224;2023-03-26T02:38:18;100585.0;;;11.82;83.08
36834;BME280;48003;52.084;5.224;2023-03-26T02:39:54;100587.0;;;11.73;84.39
36834;BME280;48003;52.084;5.224;2023-03-26T02:43:06;100586.0;;;11.72;83.6
36834;BME280;48003;52.084;5.224;2023-03-26T02:46:18;100576.0;;;11.61;84.73
36834;BME280;48003;52.084;5.224;2023-03-26T02:49:30;100573.0;;;11.93;83.06
36834;BME280;48003;52.084;5.224;2023-03-26T02:51:07;100571.0;;;11.96;82.83
36834;BME280;48003;52.084;5.224;2023-03-26T02:52:44;100572.0;;;12.0;82.65
36834;BME280;48003;52.084;5.224;2023-03-26T02:55:58;100568.0;;;11.94;82.93
36834;BME280;48003;52.084;5.224;2023-03-26T02:57:35;100572.0;;;11.77;83.36
36834;BME280;48003;52.084;5.224;2023-03-26T02:59:11;100570.0;;;11.7;83.8
36834;BME280;48003;52.084;5.224;2023-03-26T03:02:24;100571.0;;;11.55;84.17
36834;BME280;48003;52.084;5.224;2023-03-26T03:04:01;100565.0;;;11.89;82.23
36834;BME280;48003;52.084;5.224;2023-03-26T03:05:37;100567.0;;;11.95;81.49
36834;BME280;48003;52.084;5.224;2023-03-26T03:07:14;100565.0;;;11.83;82.31
36834;BME280;48003;52.084;5.224;2023-03-26T03:10:27;100562.0;;;11.59;82.77
36834;BME280;48003;52.084;5.224;2023-03-26T03:12:05;100555.0;;;11.92;81.81
36834;BME280;48003;52.084;5.224;2023-03-26T03:13:42;100555.0;;;12.0;81.19
36834;BME280;48003;52.084;5.224;2023-03-26T03:16:56;100553.0;;;11.98;81.69
36834;BME280;48003;52.084;5.224;2023-03-26T03:18:33;100552.0;;;11.83;81.66
36834;BME280;48003;52.084;5.224;2023-03-26T03:20:11;100549.0;;;11.95;81.33
36834;BME280;48003;52.084;5.224;2023-03-26T03:21:47;100550.0;;;12.03;80.44
36834;BME280;48003;52.084;5.224;2023-03-26T03:24:59;100549.0;;;11.79;81.52
36834;BME280;48003;52.084;5.224;2023-03-26T03:26:36;100553.0;;;11.84;82.03
36834;BME280;48003;52.084;5.224;2023-03-26T03:28:13;100547.0;;;11.94;81.02
36834;BME280;48003;52.084;5.224;2023-03-26T03:31:25;100547.0;;;11.64;82.56
36834;BME280;48003;52.084;5.224;2023-03-26T03:33:02;100547.0;;;11.68;82.22
36834;BME280;48003;52.084;5.224;2023-03-26T03:34:39;100544.0;;;11.85;82.23
36834;BME280;48003;52.084;5.224;2023-03-26T03:37:55;100541.0;;;11.59;82.29
36834;BME280;48003;52.084;5.224;2023-03-26T03:39:31;100539.0;;;11.49;83.42
36834;BME280;48003;52.084;5.224;2023-03-26T03:41:07;100541.0;;;11.49;83.8
36834;BME280;48003;52.084;5.224;2023-03-26T03:42:44;100536.0;;;11.66;82.94
36834;BME280;48003;52.084;5.224;2023-03-26T03:45:58;100536.0;;;11.54;83.07
36834;BME280;48003;52.084;5.224;2023-03-26T03:47:35;100537.0;;;11.2;84.18
36834;BME280;48003;52.084;5.224;2023-03-26T03:49:10;100540.0;;;11.04;85.33
36834;BME280;48003;52.084;5.224;2023-03-26T03:52:23;100534.0;;;11.67;82.77
36834;BME280;48003;52.084;5.224;2023-03-26T03:53:59;100530.0;;;11.85;81.7
36834;BME280;48003;52.084;5.224;2023-03-26T03:55:36;100527.0;;;11.62;82.65
36834;BME280;48003;52.084;5.224;2023-03-26T03:58:49;100526.0;;;11.86;81.96
36834;BME280;48003;52.084;5.224;2023-03-26T04:00:26;100522.0;;;11.9;81.77
36834;BME280;48003;52.084;5.224;2023-03-26T04:02:02;100516.0;;;12.0;81.11
36834;BME280;48003;52.084;5.224;2023-03-26T04:03:39;100510.0;;;12.13;80.87
36834;BME280;48003;52.084;5.224;2023-03-26T04:06:51;100506.0;;;11.99;81.58
36834;BME280;48003;52.084;5.224;2023-03-26T04:08:28;100501.0;;;12.21;80.49
36834;BME280;48003;52.084;5.224;2023-03-26T04:10:07;100503.0;;;12.11;80.7
36834;BME280;48003;52.084;5.224;2023-03-26T04:13:20;100502.0;;;11.98;81.33
36834;BME280;48003;52.084;5.224;2023-03-26T04:14:57;100505.0;;;11.93;81.41
36834;BME280;48003;52.084;5.224;2023-03-26T04:16:34;100503.0;;;11.95;81.69
36834;BME280;48003;52.084;5.224;2023-03-26T04:19:46;100505.0;;;11.99;81.41
36834;BME280;48003;52.084;5.224;2023-03-26T04:21:23;100495.0;;;11.85;81.64
36834;BME280;48003;52.084;5.224;2023-03-26T04:22:59;100492.0;;;11.93;81.53
36834;BME280;48003;52.084;5.224;2023-03-26T04:24:35;100491.0;;;12.08;81.23
36834;BME280;48003;52.084;5.224;2023-03-26T04:27:52;100488.0;;;12.15;81.06
36834;BME280;48003;52.084;5.224;2023-03-26T04:29:29;100485.0;;;12.2;80.66
36834;BME280;48003;52.084;5.224;2023-03-26T04:31:17;100478.0;;;12.21;80.38
36834;BME280;48003;52.084;5.224;2023-03-26T04:32:55;100474.0;;;12.39;79.8
36834;BME280;48003;52.084;5.224;2023-03-26T04:36:10;100472.0;;;12.27;80.0
36834;BME280;48003;52.084;5.224;2023-03-26T04:37:47;100467.0;;;12.07;81.06
36834;BME280;48003;52.084;5.224;2023-03-26T04:39:24;100466.0;;;11.95;81.75
36834;BME280;48003;52.084;5.224;2023-03-26T04:42:38;100459.0;;;11.8;82.58
36834;BME280;48003;52.084;5.224;2023-03-26T04:44:14;100455.0;;;11.79;82.87
36834;BME280;48003;52.084;5.224;2023-03-26T04:45:50;100452.0;;;11.84;82.64
36834;BME280;48003;52.084;5.224;2023-03-26T04:49:03;100445.0;;;11.82;82.64
36834;BME280;48003;52.084;5.224;2023-03-26T04:50:40;100446.0;;;11.95;82.29
36834;BME280;48003;52.084;5.224;2023-03-26T04:52:18;100443.0;;;11.84;82.87
36834;BME280;48003;52.084;5.224;2023-03-26T04:53:56;100440.0;;;11.74;83.46
36834;BME280;48003;52.084;5.224;2023-03-26T04:57:21;100437.0;;;11.69;84.08
36834;BME280;48003;52.084;5.224;2023-03-26T04:59:00;100430.0;;;11.62;84.08
36834;BME280;48003;52.084;5.224;2023-03-26T05:00:37;100430.0;;;11.57;84.55
36834;BME280;48003;52.084;5.224;2023-03-26T05:02:13;100427.0;;;11.54;84.95
36834;BME280;48003;52.084;5.224;2023-03-26T05:05:26;100426.0;;;11.52;85.15
36834;BME280;48003;52.084;5.224;2023-03-26T05:07:04;100418.0;;;11.51;85.33
36834;BME280;48003;52.084;5.224;2023-03-26T05:08:41;100420.0;;;11.5;85.43
36834;BME280;48003;52.084;5.224;2023-03-26T05:11:53;100421.0;;;11.49;85.58
36834;BME280;48003;52.084;5.224;2023-03-26T05:13:29;100417.0;;;11.52;85.56
36834;BME280;48003;52.084;5.224;2023-03-26T05:15:07;100419.0;;;11.64;84.45
36834;BME280;48003;52.084;5.224;2023-03-26T05:18:23;100422.0;;;11.7;83.9
36834;BME280;48003;52.084;5.224;2023-03-26T05:19:59;100420.0;;;11.97;83.47
36834;BME280;48003;52.084;5.224;2023-03-26T05:21:36;100413.0;;;12.15;82.16
36834;BME280;48003;52.084;5.224;2023-03-26T05:23:12;100416.0;;;12.13;81.86
36834;BME280;48003;52.084;5.224;2023-03-26T05:26:25;100407.0;;;12.11;81.73
36834;BME280;48003;52.084;5.224;2023-03-26T05:28:01;100406.0;;;11.96;82.05
36834;BME280;48003;52.084;5.224;2023-03-26T05:29:38;100405.0;;;12.18;81.52
36834;BME280;48003;52.084;5.224;2023-03-26T05:32:53;100398.0;;;12.15;81.52
36834;BME280;48003;52.084;5.224;2023-03-26T05:34:29;100393.0;;;12.27;80.83
36834;BME280;48003;52.084;5.224;2023-03-26T05:36:08;100396.0;;;12.2;80.73
36834;BME280;48003;52.084;5.224;2023-03-26T05:37:46;100397.0;;;12.17;80.91
36834;BME280;48003;52.084;5.224;2023-03-26T05:41:01;100392.0;;;12.09;80.87
36834;BME280;48003;52.084;5.224;2023-03-26T05:42:38;100384.0;;;11.91;81.69
36834;BME280;48003;52.084;5.224;2023-03-26T05:44:16;100384.0;;;11.92;81.83
36834;BME280;48003;52.084;5.224;2023-03-26T05:47:28;100380.0;;;11.91;81.89
36834;BME280;48003;52.084;5.224;2023-03-26T05:49:05;100382.0;;;11.85;81.99
36834;BME280;48003;52.084;5.224;2023-03-26T05:50:41;100375.0;;;11.93;81.52
36834;BME280;48003;52.084;5.224;2023-03-26T05:53:54;100373.0;;;11.9;81.2
36834;BME280;48003;52.084;5.224;2023-03-26T05:55:30;100370.0;;;11.76;81.8
36834;BME280;48003;52.084;5.224;2023-03-26T05:57:06;100370.0;;;11.72;82.1
36834;BME280;48003;52.084;5.224;2023-03-26T05:58:42;100368.0;;;11.64;82.17
36834;BME280;48003;52.084;5.224;2023-03-26T06:01:54;100365.0;;;11.58;82.95
36834;BME280;48003;52.084;5.224;2023-03-26T06:03:31;100364.0;;;11.74;82.43
36834;BME280;48003;52.084;5.224;2023-03-26T06:05:08;100361.0;;;11.8;81.96
36834;BME280;48003;52.084;5.224;2023-03-26T06:08:21;100359.0;;;11.75;82.32
36834;BME280;48003;52.084;5.224;2023-03-26T06:09:57;100364.0;;;11.68;82.68
36834;BME280;48003;52.084;5.224;2023-03-26T06:11:33;100359.0;;;11.66;82.89
36834;BME280;48003;52.084;5.224;2023-03-26T06:14:45;100356.0;;;11.74;82.7
36834;BME280;48003;52.084;5.224;2023-03-26T06:16:22;100350.0;;;11.62;82.94
36834;BME280;48003;52.084;5.224;2023-03-26T06:17:59;100345.0;;;11.53;83.65
36834;BME280;48003;52.084;5.224;2023-03-26T06:19:35;100345.0;;;11.56;83.48
36834;BME280;48003;52.084;5.224;2023-03-26T06:22:48;100341.0;;;11.63;83.36
36834;BME280;48003;52.084;5.224;2023-03-26T06:24:24;100346.0;;;11.69;83.33
36834;BME280;48003;52.084;5.224;2023-03-26T06:26:01;100339.0;;;11.73;83.15
36834;BME280;48003;52.084;5.224;2023-03-26T06:29:14;100336.0;;;11.71;83.2
36834;BME280;48003;52.084;5.224;2023-03-26T06:30:50;100340.0;;;11.83;82.84
36834;BME280;48003;52.084;5.224;2023-03-26T06:32:27;100338.0;;;11.81;82.78
36834;BME280;48003;52.084;5.224;2023-03-26T06:35:39;100333.0;;;11.66;83.35
36834;BME280;48003;52.084;5.224;2023-03-26T06:37:15;100331.0;;;11.56;83.63
36834;BME280;48003;52.084;5.224;2023-03-26T06:38:52;100328.0;;;11.68;83.49
36834;BME280;48003;52.084;5.224;2023-03-26T06:42:06;100328.0;;;11.6;83.52
36834;BME280;48003;52.084;5.224;2023-03-26T06:43:43;100325.0;;;11.67;83.56
36834;BME280;48003;52.084;5.224;2023-03-26T06:45:19;100328.0;;;11.68;83.72
36834;BME280;48003;52.084;5.224;2023-03-26T06:46:55;100328.0;;;11.73;83.47
36834;BME280;48003;52.084;5.224;2023-03-26T06:50:09;100331.0;;;11.63;83.95
36834;BME280;48003;52.084;5.224;2023-03-26T06:51:46;100333.0;;;11.61;84.19
36834;BME280;48003;52.084;5.224;2023-03-26T06:53:23;100330.0;;;11.51;84.62
36834;BME280;48003;52.084;5.224;2023-03-26T06:56:35;100331.0;;;11.5;85.14
36834;BME280;48003;52.084;5.224;2023-03-26T06:58:12;100330.0;;;11.49;85.2
36834;BME280;48003;52.084;5.224;2023-03-26T06:59:48;100328.0;;;11.48;85.0
36834;BME280;48003;52.084;5.224;2023-03-26T07:01:24;100331.0;;;11.48;84.66
36834;BME280;48003;52.084;5.224;2023-03-26T07:04:38;100327.0;;;11.47;85.28
36834;BME280;48003;52.084;5.224;2023-03-26T07:06:14;100330.0;;;11.46;85.32
36834;BME280;48003;52.084;5.224;2023-03-26T07:07:50;100330.0;;;11.46;85.3
36834;BME280;48003;52.084;5.224;2023-03-26T07:11:03;100328.0;;;11.47;85.23
36834;BME280;48003;52.084;5.224;2023-03-26T07:12:40;100332.0;;;11.48;85.25
36834;BME280;48003;52.084;5.224;2023-03-26T07:14:17;100327.0;;;11.46;85.43
36834;BME280;48003;52.084;5.224;2023-03-26T07:17:29;100328.0;;;11.46;85.78
36834;BME280;48003;52.084;5.224;2023-03-26T07:19:05;100328.0;;;11.47;85.91
36834;BME280;48003;52.084;5.224;2023-03-26T07:20:43;100326.0;;;11.47;85.81
36834;BME280;48003;52.084;5.224;2023-03-26T07:22:21;100330.0;;;11.5;85.62
36834;BME280;48003;52.084;5.224;2023-03-26T07:25:36;100328.0;;;11.52;85.55
36834;BME280;48003;52.084;5.224;2023-03-26T07:27:25;100324.0;;;11.54;86.02
36834;BME280;48003;52.084;5.224;2023-03-26T07:29:15;100328.0;;;11.57;86.16
36834;BME280;48003;52.084;5.224;2023-03-26T07:31:19;100334.0;;;11.58;86.26
36834;BME280;48003;52.084;5.224;2023-03-26T07:33:03;100328.0;;;11.58;86.3
36834;BME280;48003;52.084;5.224;2023-03-26T07:36:33;100331.0;;;11.63;85.6
36834;BME280;48003;52.084;5.224;2023-03-26T07:38:22;100324.0;;;11.65;85.2
36834;BME280;48003;52.084;5.224;2023-03-26T07:40:15;100328.0;;;11.7;84.75
36834;BME280;48003;52.084;5.224;2023-03-26T07:42:00;100330.0;;;11.73;84.32
36834;BME280;48003;52.084;5.224;2023-03-26T07:43:53;100328.0;;;11.71;84.43
36834;BME280;48003;52.084;5.224;2023-03-26T07:46:04;100330.0;;;11.71;84.46
36834;BME280;48003;52.084;5.224;2023-03-26T07:47:46;100322.0;;;11.68;84.1
36834;BME280;48003;52.084;5.224;2023-03-26T07:51:00;100323.0;;;11.66;84.03
36834;BME280;48003;52.084;5.224;2023-03-26T07:52:37;100323.0;;;11.65;84.09
36834;BME280;48003;52.084;5.224;2023-03-26T07:54:14;100318.0;;;11.71;84.16
36834;BME280;48003;52.084;5.224;2023-03-26T07:55:53;100320.0;;;11.73;83.81
36834;BME280;48003;52.084;5.224;2023-03-26T07:59:27;100318.0;;;11.71;83.25
36834;BME280;48003;52.084;5.224;2023-03-26T08:01:12;100320.0;;;11.68;83.89
36834;BME280;48003;52.084;5.224;2023-03-26T08:03:06;100317.0;;;11.71;84.01
36834;BME280;48003;52.084;5.224;2023-03-26T08:05:49;100318.0;;;11.71;84.07
36834;BME280;48003;52.084;5.224;2023-03-26T08:07:32;100321.0;;;11.69;84.39
36834;BME280;48003;52.084;5.224;2023-03-26T08:09:21;100319.0;;;11.69;84.41
36834;BME280;48003;52.084;5.224;2023-03-26T08:11:18;100318.0;;;11.73;83.67
36834;BME280;48003;52.084;5.224;2023-03-26T08:13:08;100315.0;;;11.77;83.88
36834;BME280;48003;52.084;5.224;2023-03-26T08:14:57;100310.0;;;11.82;83.74
36834;BME280;48003;52.084;5.224;2023-03-26T08:18:37;100310.0;;;11.89;83.44
36834;BME280;48003;52.084;5.224;2023-03-26T08:20:25;100312.0;;;11.89;83.26
36834;BME280;48003;52.084;5.224;2023-03-26T08:22:10;100308.0;;;11.85;83.39
36834;BME280;48003;52.084;5.224;2023-03-26T08:23:59;100306.0;;;11.86;83.27
36834;BME280;48003;52.084;5.224;2023-03-26T08:25:46;100305.0;;;11.84;83.63
36834;BME280;48003;52.084;5.224;2023-03-26T08:27:35;100309.0;;;11.89;83.39
36834;BME280;48003;52.084;5.224;2023-03-26T08:31:01;100310.0;;;11.89;83.61
36834;BME280;48003;52.084;5.224;2023-03-26T08:32:38;100306.0;;;11.85;83.62
36834;BME280;48003;52.084;5.224;2023-03-26T08:34:15;100305.0;;;11.9;83.24
36834;BME280;48003;52.084;5.224;2023-03-26T08:35:51;100306.0;;;11.96;83.49
36834;BME280;48003;52.084;5.224;2023-03-26T08:39:05;100307.0;;;12.05;83.41
36834;BME280;48003;52.084;5.224;2023-03-26T08:41:00;100305.0;;;12.02;83.6
36834;BME280;48003;52.084;5.224;2023-03-26T08:48:34;100300.0;;;12.12;83.74
36834;BME280;48003;52.084;5.224;2023-03-26T08:54:45;100296.0;;;12.19;83.67
36834;BME280;48003;52.084;5.224;2023-03-26T08:57:02;100299.0;;;12.11;83.35
36834;BME280;48003;52.084;5.224;2023-03-26T09:00:24;100300.0;;;12.09;83.44
36834;BME280;48003;52.084;5.224;2023-03-26T09:02:38;100301.0;;;12.09;83.18
36834;BME280;48003;52.084;5.224;2023-03-26T09:06:09;100299.0;;;12.09;82.94
36834;BME280;48003;52.084;5.224;2023-03-26T09:09:07;100303.0;;;12.08;83.53
36834;BME280;48003;52.084;5.224;2023-03-26T09:13:30;100301.0;;;12.17;83.99
36834;BME280;48003;52.084;5.224;2023-03-26T09:19:27;100300.0;;;12.2;83.71
36834;BME280;48003;52.084;5.224;2023-03-26T09:22:02;100299.0;;;12.2;83.94
36834;BME280;48003;52.084;5.224;2023-03-26T09:25:24;100295.0;;;12.26;83.84
36834;BME280;48003;52.084;5.224;2023-03-26T09:26:23;100298.0;;;12.25;84.13
36834;BME280;48003;52.084;5.224;2023-03-26T09:28:20;100298.0;;;12.26;83.88
36834;BME280;48003;52.084;5.224;2023-03-26T09:30:39;100302.0;;;12.29;84.08
36834;BME280;48003;52.084;5.224;2023-03-26T09:33:44;100301.0;;;12.29;84.26
36834;BME280;48003;52.084;5.224;2023-03-26T09:35:41;100300.0;;;12.36;83.82
36834;BME280;48003;52.084;5.224;2023-03-26T09:37:35;100306.0;;;12.34;83.56
36834;BME280;48003;52.084;5.224;2023-03-26T09:39:28;100300.0;;;12.34;82.84
36834;BME280;48003;52.084;5.224;2023-03-26T09:41:16;100300.0;;;12.31;82.78
36834;BME280;48003;52.084;5.224;2023-03-26T09:42:55;100302.0;;;12.25;81.94
36834;BME280;48003;52.084;5.224;2023-03-26T09:47:49;100301.0;;;12.2;82.91
36834;BME280;48003;52.084;5.224;2023-03-26T09:51:19;100310.0;;;12.11;83.33
36834;BME280;48003;52.084;5.224;2023-03-26T09:53:56;100308.0;;;12.12;83.64
36834;BME280;48003;52.084;5.224;2023-03-26T09:56:14;100319.0;;;12.11;83.72
36834;BME280;48003;52.084;5.224;2023-03-26T09:58:12;100317.0;;;12.07;83.83
36834;BME280;48003;52.084;5.224;2023-03-26T10:00:16;100317.0;;;12.05;83.49
36834;BME280;48003;52.084;5.224;2023-03-26T10:02:09;100322.0;;;12.1;83.04
36834;BME280;48003;52.084;5.224;2023-03-26T10:04:03;100320.0;;;12.09;83.07
36834;BME280;48003;52.084;5.224;2023-03-26T10:06:04;100324.0;;;12.12;83.18
36834;BME280;48003;52.084;5.224;2023-03-26T10:07:52;100324.0;;;12.14;82.9
36834;BME280;48003;52.084;5.224;2023-03-26T10:11:38;100330.0;;;12.17;82.85
36834;BME280;48003;52.084;5.224;2023-03-26T10:13:37;100330.0;;;12.15;82.88
36834;BME280;48003;52.084;5.224;2023-03-26T10:15:31;100332.0;;;12.14;83.19
36834;BME280;48003;52.084;5.224;2023-03-26T10:17:26;100335.0;;;12.19;82.82
36834;BME280;48003;52.084;5.224;2023-03-26T10:19:22;100332.0;;;12.14;82.22
36834;BME280;48003;52.084;5.224;2023-03-26T10:21:06;100333.0;;;12.07;82.28
36834;BME280;48003;52.084;5.224;2023-03-26T10:22:57;100332.0;;;12.07;82.73
36834;BME280;48003;52.084;5.224;2023-03-26T10:24:52;100336.0;;;12.08;82.75
36834;BME280;48003;52.084;5.224;2023-03-26T10:27:14;100338.0;;;12.04;82.02
36834;BME280;48003;52.084;5.224;2023-03-26T10:30:16;100341.0;;;12.14;82.17
36834;BME280;48003;52.084;5.224;2023-03-26T10:32:06;100343.0;;;12.17;82.28
36834;BME280;48003;52.084;5.224;2023-03-26T10:33:55;100347.0;;;12.12;82.3
36834;BME280;48003;52.084;5.224;2023-03-26T10:35:46;100349.0;;;12.11;82.25
36834;BME280;48003;52.084;5.224;2023-03-26T10:37:37;100349.0;;;12.12;81.69
36834;BME280;48003;52.084;5.224;2023-03-26T10:39:30;100347.0;;;12.17;81.41
36834;BME280;48003;52.084;5.224;2023-03-26T10:41:22;100352.0;;;12.2;81.23
36834;BME280;48003;52.084;5.224;2023-03-26T10:46:03;100353.0;;;12.18;80.94
36834;BME280;48003;52.084;5.224;2023-03-26T10:49:43;100355.0;;;12.14;80.37
36834;BME280;48003;52.084;5.224;2023-03-26T10:53:27;100358.0;;;12.16;80.19
36834;BME280;48003;52.084;5.224;2023-03-26T10:55:10;100357.0;;;12.11;79.88
36834;BME280;48003;52.084;5.224;2023-03-26T10:56:51;100356.0;;;12.14;80.16
36834;BME280;48003;52.084;5.224;2023-03-26T10:58:30;100362.0;;;12.1;80.22
36834;BME280;48003;52.084;5.224;2023-03-26T11:00:17;100364.0;;;12.12;80.14
36834;BME280;48003;52.084;5.224;2023-03-26T11:03:49;100366.0;;;12.08;79.7
36834;BME280;48003;52.084;5.224;2023-03-26T11:05:42;100370.0;;;12.06;79.97
36834;BME280;48003;52.084;5.224;2023-03-26T11:07:29;100376.0;;;12.05;80.52
36834;BME280;48003;52.084;5.224;2023-03-26T11:09:22;100375.0;;;12.06;80.97
36834;BME280;48003;52.084;5.224;2023-03-26T11:11:04;100384.0;;;12.03;80.17
36834;BME280;48003;52.084;5.224;2023-03-26T11:12:51;100377.0;;;11.99;79.19
36834;BME280;48003;52.084;5.224;2023-03-26T11:14:38;100381.0;;;11.9;78.64
36834;BME280;48003;52.084;5.224;2023-03-26T11:18:12;100384.0;;;11.87;78.89
36834;BME280;48003;52.084;5.224;2023-03-26T11:19:56;100388.0;;;11.86;79.33
36834;BME280;48003;52.084;5.224;2023-03-26T11:21:39;100386.0;;;11.81;79.2
36834;BME280;48003;52.084;5.224;2023-03-26T11:23:32;100389.0;;;11.79;79.02
36834;BME280;48003;52.084;5.224;2023-03-26T11:25:24;100389.0;;;11.83;79.25
36834;BME280;48003;52.084;5.224;2023-03-26T11:28:03;100389.0;;;11.82;79.19
36834;BME280;48003;52.084;5.224;2023-03-26T11:29:51;100389.0;;;11.8;79.75
36834;BME280;48003;52.084;5.224;2023-03-26T11:31:42;100392.0;;;11.82;80.41
36834;BME280;48003;52.084;5.224;2023-03-26T11:33:26;100392.0;;;11.89;79.91
36834;BME280;48003;52.084;5.224;2023-03-26T11:36:53;100399.0;;;11.91;79.86
36834;BME280;48003;52.084;5.224;2023-03-26T11:38:35;100401.0;;;11.99;80.69